Senshin Maru — JD2065 — position and weather

sailwx.info

Track history (hours):
 
Tides and Currents Weather Stations Pressure Air Temp Water Temp Dewpoint Dewpoint Depression Visibility Wind Speed Wind Dir Waves Ship Positions

Senshin Maru

Last reported at 2017-Dec-08 20:06 UTC. Time now 2017-Dec-12 19:49 UTC.
Position N 34°58' E 139°43'.

Length 76 m.

Type: Cargo ship. MMSI: 431101099.

Date/timePositionNaut miles runAvg speedWind from/ knotsBaromVisibWave heightAir tempDewpointWater temp
2017-Dec-08 20:06N 34°58' E 139°43'112.0
2017-Dec-08 20:00N 34°59' E 139°42'611.7
2017-Dec-08 19:30N 35°04' E 139°44'612.5
2017-Dec-08 19:00N 35°10' E 139°46'612.2
2017-Dec-08 18:30N 35°16' E 139°45'612.0
2017-Dec-08 18:00N 35°21' E 139°41'4 7.7
2017-Dec-08 17:29N 35°24' E 139°37'0 0.0
2017-Dec-08 16:42N 35°24' E 139°37'0 0.0
2017-Dec-08 16:24N 35°24' E 139°37'0 0.0
2017-Dec-08 16:00N 35°24' E 139°37'0 0.0
2017-Dec-08 15:27N 35°24' E 139°37'0 0.0
2017-Dec-08 14:57N 35°24' E 139°37'0 0.0
2017-Dec-08 14:18N 35°24' E 139°37'0 0.0
2017-Dec-08 13:54N 35°24' E 139°37'0 0.0
2017-Dec-08 13:30N 35°24' E 139°37'0 0.0
2017-Dec-08 12:54N 35°24' E 139°37'0 0.0
2017-Dec-08 12:30N 35°24' E 139°37'0 0.0
2017-Dec-08 11:57N 35°24' E 139°37'0 0.0
2017-Dec-08 11:27N 35°24' E 139°37'0 0.0
2017-Dec-08 10:51N 35°24' E 139°37'0 0.0
2017-Dec-08 10:31N 35°24' E 139°37'0 0.0
2017-Dec-08 09:54N 35°24' E 139°37'0 0.0
2017-Dec-08 09:31N 35°24' E 139°37'0 0.0
2017-Dec-08 08:51N 35°24' E 139°37'0 0.0
2017-Dec-08 08:25N 35°24' E 139°37'0 0.0
2017-Dec-08 07:54N 35°24' E 139°37'0 0.0
2017-Dec-08 07:28N 35°24' E 139°37'0 0.0
2017-Dec-08 06:58N 35°24' E 139°37'0 0.0
2017-Dec-08 06:28N 35°24' E 139°37'0 0.0
2017-Dec-08 05:49N 35°24' E 139°37'1 2.0
2017-Dec-08 05:30N 35°24' E 139°38'3 5.1
2017-Dec-08 05:00N 35°25' E 139°41'0 0.2
2017-Dec-08 04:29N 35°25' E 139°41'0 0.0
2017-Dec-08 03:59N 35°25' E 139°41'0 0.0
2017-Dec-08 03:29N 35°25' E 139°41'0 0.0
2017-Dec-08 02:59N 35°25' E 139°41'0 0.0
2017-Dec-08 02:29N 35°25' E 139°41'0 0.3
2017-Dec-08 02:00N 35°25' E 139°41'611.4
2017-Dec-08 01:30N 35°28' E 139°47'1612.1
2017-Dec-08 00:09N 35°33' E 140°06'1 0.0
2017-Dec-07 07:08N 35°33' E 140°07'1 7.7
2017-Dec-07 07:00N 35°33' E 140°06'2 2.0
2017-Dec-07 05:55N 35°33' E 140°03'8 8.2
2017-Dec-07 04:56N 35°30' E 139°54'512.0
2017-Dec-07 04:30N 35°27' E 139°49'611.6
2017-Dec-07 04:00N 35°22' E 139°45'510.6
2017-Dec-07 03:30N 35°17' E 139°46'611.0
2017-Dec-07 02:59N 35°11' E 139°47'611.6
2017-Dec-07 02:26N 35°05' E 139°45'510.5
2017-Dec-07 01:56N 35°01' E 139°40'1912.6
2017-Dec-07 00:23N 34°51' E 139°20'613.2
2017-Dec-06 23:54N 34°47' E 139°14'712.8
2017-Dec-06 23:20N 34°42' E 139°07'412.0
2017-Dec-06 23:00N 34°40' E 139°03'  
2017-Dec-01 07:08N 41°31' E 141°13'412.5
2017-Dec-01 06:48N 41°32' E 141°08'412.4
2017-Dec-01 06:30N 41°33' E 141°03'612.4
2017-Dec-01 06:00N 41°35' E 140°55'612.5
2017-Dec-01 05:30N 41°33' E 140°47'  
Track history (hours):
 
Tides and Currents Weather Stations Pressure Air Temp Water Temp Dewpoint Dewpoint Depression Visibility Wind Speed Wind Dir Waves Ship Positions

Senshin Maru

Last reported at 2017-Dec-08 20:06 UTC. Time now 2017-Dec-12 19:49 UTC.
Position N 34°58' E 139°43'.

Length 76 m.

Type: Cargo ship. MMSI: 431101099.

Date/timePositionNaut miles runAvg speedWind from/ knotsBaromVisibWave heightAir tempDewpointWater temp
2017-Dec-08 20:06N 34°58' E 139°43'112.0
2017-Dec-08 20:00N 34°59' E 139°42'611.7
2017-Dec-08 19:30N 35°04' E 139°44'612.5
2017-Dec-08 19:00N 35°10' E 139°46'612.2
2017-Dec-08 18:30N 35°16' E 139°45'612.0
2017-Dec-08 18:00N 35°21' E 139°41'4 7.7
2017-Dec-08 17:29N 35°24' E 139°37'0 0.0
2017-Dec-08 16:42N 35°24' E 139°37'0 0.0
2017-Dec-08 16:24N 35°24' E 139°37'0 0.0
2017-Dec-08 16:00N 35°24' E 139°37'0 0.0
2017-Dec-08 15:27N 35°24' E 139°37'0 0.0
2017-Dec-08 14:57N 35°24' E 139°37'0 0.0
2017-Dec-08 14:18N 35°24' E 139°37'0 0.0
2017-Dec-08 13:54N 35°24' E 139°37'0 0.0
2017-Dec-08 13:30N 35°24' E 139°37'0 0.0
2017-Dec-08 12:54N 35°24' E 139°37'0 0.0
2017-Dec-08 12:30N 35°24' E 139°37'0 0.0
2017-Dec-08 11:57N 35°24' E 139°37'0 0.0
2017-Dec-08 11:27N 35°24' E 139°37'0 0.0
2017-Dec-08 10:51N 35°24' E 139°37'0 0.0
2017-Dec-08 10:31N 35°24' E 139°37'0 0.0
2017-Dec-08 09:54N 35°24' E 139°37'0 0.0
2017-Dec-08 09:31N 35°24' E 139°37'0 0.0
2017-Dec-08 08:51N 35°24' E 139°37'0 0.0
2017-Dec-08 08:25N 35°24' E 139°37'0 0.0
2017-Dec-08 07:54N 35°24' E 139°37'0 0.0
2017-Dec-08 07:28N 35°24' E 139°37'0 0.0
2017-Dec-08 06:58N 35°24' E 139°37'0 0.0
2017-Dec-08 06:28N 35°24' E 139°37'0 0.0
2017-Dec-08 05:49N 35°24' E 139°37'1 2.0
2017-Dec-08 05:30N 35°24' E 139°38'3 5.1
2017-Dec-08 05:00N 35°25' E 139°41'0 0.2
2017-Dec-08 04:29N 35°25' E 139°41'0 0.0
2017-Dec-08 03:59N 35°25' E 139°41'0 0.0
2017-Dec-08 03:29N 35°25' E 139°41'0 0.0
2017-Dec-08 02:59N 35°25' E 139°41'0 0.0
2017-Dec-08 02:29N 35°25' E 139°41'0 0.3
2017-Dec-08 02:00N 35°25' E 139°41'611.4
2017-Dec-08 01:30N 35°28' E 139°47'1612.1
2017-Dec-08 00:09N 35°33' E 140°06'1 0.0
2017-Dec-07 07:08N 35°33' E 140°07'1 7.7
2017-Dec-07 07:00N 35°33' E 140°06'2 2.0
2017-Dec-07 05:55N 35°33' E 140°03'8 8.2
2017-Dec-07 04:56N 35°30' E 139°54'512.0
2017-Dec-07 04:30N 35°27' E 139°49'611.6
2017-Dec-07 04:00N 35°22' E 139°45'510.6
2017-Dec-07 03:30N 35°17' E 139°46'611.0
2017-Dec-07 02:59N 35°11' E 139°47'611.6
2017-Dec-07 02:26N 35°05' E 139°45'510.5
2017-Dec-07 01:56N 35°01' E 139°40'1912.6
2017-Dec-07 00:23N 34°51' E 139°20'613.2
2017-Dec-06 23:54N 34°47' E 139°14'712.8
2017-Dec-06 23:20N 34°42' E 139°07'412.0
2017-Dec-06 23:00N 34°40' E 139°03'  
2017-Dec-01 07:08N 41°31' E 141°13'412.5
2017-Dec-01 06:48N 41°32' E 141°08'412.4
2017-Dec-01 06:30N 41°33' E 141°03'612.4
2017-Dec-01 06:00N 41°35' E 140°55'612.5
2017-Dec-01 05:30N 41°33' E 140°47'  

Dump ship's entire track history